createdAt,value
2023-02-13T00:00:22.402Z,16.77
2023-02-13T00:02:49.364Z,16.15
2023-02-13T00:05:16.119Z,16.40
2023-02-13T00:07:42.828Z,16.73
2023-02-13T00:10:09.941Z,16.70
2023-02-13T00:12:36.805Z,16.23
2023-02-13T00:15:04.672Z,16.13
2023-02-13T00:17:32.828Z,15.82
2023-02-13T00:19:59.837Z,14.68
2023-02-13T00:22:26.794Z,14.95
2023-02-13T00:24:53.569Z,15.45
2023-02-13T00:27:20.286Z,15.88
2023-02-13T00:29:47.159Z,16.05
2023-02-13T00:32:14.833Z,16.17
2023-02-13T00:34:42.369Z,15.98
2023-02-13T00:37:09.058Z,16.23
2023-02-13T00:39:35.790Z,15.68
2023-02-13T00:42:02.508Z,15.50
2023-02-13T00:44:29.217Z,16.02
2023-02-13T00:46:55.870Z,17.40
2023-02-13T00:49:23.843Z,15.05
2023-02-13T00:51:50.489Z,15.55
2023-02-13T00:54:17.339Z,15.55
2023-02-13T00:56:44.295Z,16.05
2023-02-13T00:59:13.420Z,15.48
2023-02-13T01:01:40.166Z,15.63
2023-02-13T01:04:07.039Z,14.90
2023-02-13T01:06:33.849Z,15.32
2023-02-13T01:09:00.488Z,14.80
2023-02-13T01:11:27.230Z,16.88
2023-02-13T01:13:53.901Z,16.40
2023-02-13T01:16:20.827Z,15.98
2023-02-13T01:18:47.606Z,16.20
2023-02-13T01:21:19.694Z,15.80
2023-02-13T01:23:47.325Z,15.55
2023-02-13T01:26:21.824Z,15.90
2023-02-13T01:28:54.400Z,16.23
2023-02-13T01:31:21.953Z,15.82
2023-02-13T01:33:50.688Z,16.97
2023-02-13T01:36:21.228Z,17.27
2023-02-13T01:38:48.139Z,17.35
2023-02-13T01:41:15.427Z,16.27
2023-02-13T01:43:45.214Z,16.98
2023-02-13T01:46:15.268Z,15.55
2023-02-13T01:48:42.288Z,15.35
2023-02-13T01:51:14.205Z,15.95
2023-02-13T01:53:46.398Z,17.20
2023-02-13T01:56:24.662Z,16.80
2023-02-13T01:58:56.908Z,16.45
2023-02-13T02:01:26.382Z,17.05
2023-02-13T02:04:00.590Z,17.10
2023-02-13T02:06:35.628Z,16.90
2023-02-13T02:09:09.504Z,17.15
2023-02-13T02:11:58.247Z,17.75
2023-02-13T02:14:26.084Z,17.10
2023-02-13T02:16:55.874Z,17.33
2023-02-13T02:19:49.958Z,17.83
2023-02-13T02:23:00.246Z,17.08
2023-02-13T02:25:59.077Z,17.55
2023-02-13T02:28:31.729Z,18.70
2023-02-13T02:31:12.985Z,19.27
2023-02-13T02:34:00.928Z,17.95
2023-02-13T02:36:58.939Z,18.65
2023-02-13T02:39:29.618Z,19.02
2023-02-13T02:42:22.166Z,17.92
2023-02-13T02:45:08.515Z,18.35
2023-02-13T02:48:09.480Z,18.52
2023-02-13T02:50:53.396Z,19.70
2023-02-13T02:53:32.958Z,18.60
2023-02-13T02:56:20.428Z,20.20
2023-02-13T02:59:11.227Z,20.10
2023-02-13T03:01:57.700Z,19.63
2023-02-13T03:04:54.738Z,20.90
2023-02-13T03:07:21.494Z,20.98
2023-02-13T03:10:15.796Z,22.67
2023-02-13T03:13:10.882Z,20.90
2023-02-13T03:15:59.817Z,21.20
2023-02-13T03:18:45.842Z,22.73
2023-02-13T03:21:56.091Z,22.45
2023-02-13T03:24:41.723Z,22.63
2023-02-13T03:27:53.285Z,22.80
2023-02-13T03:30:22.947Z,22.13
2023-02-13T03:33:17.280Z,21.75
2023-02-13T03:36:20.229Z,24.40
2023-02-13T03:39:00.190Z,25.20
2023-02-13T03:41:39.049Z,23.15
2023-02-13T03:44:36.970Z,23.60
2023-02-13T03:47:06.815Z,22.55
2023-02-13T03:50:03.268Z,23.15
2023-02-13T03:52:38.441Z,23.13
2023-02-13T03:55:32.467Z,24.00
2023-02-13T03:58:26.149Z,23.67
2023-02-13T04:00:57.156Z,23.58
2023-02-13T04:03:57.372Z,24.33
2023-02-13T04:06:31.411Z,23.58
2023-02-13T04:08:58.381Z,24.95
2023-02-13T04:11:35.150Z,24.63
2023-02-13T04:14:08.559Z,23.73
2023-02-13T04:16:42.455Z,25.02
2023-02-13T04:19:11.098Z,24.10
2023-02-13T04:21:40.278Z,24.38
2023-02-13T04:24:08.039Z,24.58
2023-02-13T04:26:41.016Z,26.45
2023-02-13T04:29:08.387Z,26.63
2023-02-13T04:31:35.694Z,25.67
2023-02-13T04:34:02.825Z,25.25
2023-02-13T04:36:29.748Z,25.00
2023-02-13T04:38:56.590Z,27.27
2023-02-13T04:41:23.330Z,25.98
2023-02-13T04:43:52.298Z,25.08
2023-02-13T04:46:19.583Z,25.33
2023-02-13T04:48:46.274Z,25.75
2023-02-13T04:51:13.258Z,25.70
2023-02-13T04:53:40.081Z,24.60
2023-02-13T04:56:06.951Z,24.80
2023-02-13T04:58:33.626Z,24.55
2023-02-13T05:01:00.604Z,25.25
2023-02-13T05:03:27.524Z,24.25
2023-02-13T05:05:54.304Z,25.15
2023-02-13T05:08:21.044Z,25.77
2023-02-13T05:10:48.447Z,25.98
2023-02-13T05:13:16.562Z,25.20
2023-02-13T05:15:43.416Z,26.42
2023-02-13T05:18:10.166Z,24.85
2023-02-13T05:20:36.835Z,26.42
2023-02-13T05:23:21.996Z,25.42
2023-02-13T05:25:49.396Z,25.92
2023-02-13T05:28:35.554Z,26.40
2023-02-13T05:31:02.948Z,25.67
2023-02-13T05:33:29.781Z,25.33
2023-02-13T05:35:56.422Z,26.95
2023-02-13T05:38:23.138Z,27.27
2023-02-13T05:40:49.770Z,25.30
2023-02-13T05:43:16.495Z,23.73
2023-02-13T05:45:43.438Z,24.15
2023-02-13T05:48:10.186Z,24.38
2023-02-13T05:50:37.021Z,26.25
2023-02-13T05:53:03.692Z,26.42
2023-02-13T05:55:30.413Z,26.08
2023-02-13T05:57:58.216Z,28.13
2023-02-13T06:00:25.236Z,24.08
2023-02-13T06:02:52.143Z,26.45
2023-02-13T06:05:19.008Z,25.38
2023-02-13T06:07:45.764Z,25.75
2023-02-13T06:10:12.411Z,24.27
2023-02-13T06:12:39.054Z,27.50
2023-02-13T06:15:06.602Z,22.55
2023-02-13T06:17:33.284Z,25.58
2023-02-13T06:19:59.932Z,24.63
2023-02-13T06:22:26.574Z,25.95
2023-02-13T06:24:53.372Z,25.63
2023-02-13T06:27:20.034Z,25.48
2023-02-13T06:29:46.722Z,24.75
2023-02-13T06:32:13.822Z,23.77
2023-02-13T06:34:40.527Z,25.23
2023-02-13T06:37:07.229Z,24.80
2023-02-13T06:39:34.211Z,24.17
2023-02-13T06:42:04.681Z,26.63
2023-02-13T06:44:31.363Z,24.58
2023-02-13T06:46:58.006Z,26.42
2023-02-13T06:49:24.661Z,25.05
2023-02-13T06:51:51.507Z,24.90
2023-02-13T06:54:18.216Z,25.55
2023-02-13T06:56:44.991Z,25.25
2023-02-13T06:59:11.664Z,25.83
2023-02-13T07:01:38.539Z,23.58
2023-02-13T07:04:05.431Z,25.15
2023-02-13T07:06:33.473Z,25.08
2023-02-13T07:09:03.087Z,26.65
2023-02-13T07:11:30.274Z,26.15
2023-02-13T07:13:57.314Z,24.90
2023-02-13T07:16:24.084Z,25.05
2023-02-13T07:18:50.914Z,24.98
2023-02-13T07:21:17.621Z,26.42
2023-02-13T07:23:44.263Z,25.00
2023-02-13T07:26:11.195Z,26.80
2023-02-13T07:28:37.999Z,26.75
2023-02-13T07:31:05.986Z,27.17
2023-02-13T07:33:34.102Z,28.33
2023-02-13T07:36:03.467Z,26.13
2023-02-13T07:38:33.439Z,28.10
2023-02-13T07:41:01.645Z,27.42
2023-02-13T07:43:28.869Z,29.13
2023-02-13T07:45:59.988Z,30.08
2023-02-13T07:48:27.490Z,30.60
2023-02-13T07:50:55.565Z,30.30
2023-02-13T07:53:22.621Z,31.27
2023-02-13T07:55:49.441Z,31.88
2023-02-13T07:58:16.161Z,30.90
2023-02-13T08:00:42.865Z,31.25
2023-02-13T08:03:12.039Z,31.77
2023-02-13T08:05:39.380Z,30.67
2023-02-13T08:08:06.082Z,31.42
2023-02-13T08:10:51.332Z,32.55
2023-02-13T08:13:18.530Z,30.83
2023-02-13T08:15:45.402Z,30.52
2023-02-13T08:18:12.101Z,31.38
2023-02-13T08:20:40.061Z,29.67
2023-02-13T08:23:09.510Z,29.85
2023-02-13T08:25:38.557Z,29.77
2023-02-13T08:28:05.448Z,30.05
2023-02-13T08:30:32.206Z,28.88
2023-02-13T08:32:58.983Z,27.73
2023-02-13T08:35:29.442Z,27.75
2023-02-13T08:37:56.268Z,27.63
2023-02-13T08:40:24.541Z,28.20
2023-02-13T08:42:52.687Z,27.15
2023-02-13T08:45:19.411Z,24.30
2023-02-13T08:47:46.176Z,23.50
2023-02-13T08:50:12.815Z,23.13
2023-02-13T08:52:39.523Z,21.13
2023-02-13T08:55:06.422Z,19.67
2023-02-13T08:57:33.133Z,20.40
2023-02-13T08:59:59.860Z,18.02
2023-02-13T09:02:26.624Z,19.77
2023-02-13T09:04:53.358Z,19.40
2023-02-13T09:07:20.026Z,18.75
2023-02-13T09:09:46.719Z,18.60
2023-02-13T09:12:13.494Z,19.10
2023-02-13T09:14:40.322Z,18.45
2023-02-13T09:17:07.004Z,16.75
2023-02-13T09:19:33.812Z,17.95
2023-02-13T09:22:00.535Z,17.95
2023-02-13T09:24:27.250Z,16.17
2023-02-13T09:26:54.056Z,17.65
2023-02-13T09:29:20.804Z,17.23
2023-02-13T09:31:47.708Z,15.63
2023-02-13T09:34:14.832Z,16.40
2023-02-13T09:36:41.523Z,16.23
2023-02-13T09:39:09.214Z,15.70
2023-02-13T09:41:39.718Z,14.70
2023-02-13T09:44:06.626Z,14.48
2023-02-13T09:46:36.087Z,16.02
2023-02-13T09:49:11.332Z,15.60
2023-02-13T09:51:40.728Z,15.88
2023-02-13T09:54:08.642Z,14.55
2023-02-13T09:56:49.865Z,15.60
2023-02-13T09:59:48.223Z,15.20
2023-02-13T10:02:39.209Z,14.98
2023-02-13T10:05:40.000Z,16.60
2023-02-13T10:09:00.228Z,15.15
2023-02-13T10:12:11.905Z,15.98
2023-02-13T10:14:56.543Z,15.50
2023-02-13T10:17:39.339Z,14.60
2023-02-13T10:20:26.166Z,14.13
2023-02-13T10:22:59.955Z,14.85
2023-02-13T10:25:44.034Z,14.18
2023-02-13T10:28:17.449Z,14.07
2023-02-13T10:30:58.295Z,14.85
2023-02-13T10:33:34.271Z,14.40
2023-02-13T10:36:15.888Z,14.95
2023-02-13T10:38:49.306Z,14.98
2023-02-13T10:41:36.945Z,15.63
2023-02-13T10:44:15.776Z,14.30
2023-02-13T10:47:12.550Z,14.70
2023-02-13T10:50:05.154Z,15.05
2023-02-13T10:53:05.258Z,14.68
2023-02-13T10:55:31.884Z,14.75
2023-02-13T10:58:07.500Z,15.07
2023-02-13T11:00:52.781Z,14.40
2023-02-13T11:03:28.083Z,15.32
2023-02-13T11:05:57.150Z,15.02
2023-02-13T11:08:47.755Z,14.10
2023-02-13T11:11:35.587Z,14.45
2023-02-13T11:14:11.665Z,14.07
2023-02-13T11:16:50.202Z,14.30
2023-02-13T11:19:23.929Z,14.30
2023-02-13T11:21:57.840Z,13.65
2023-02-13T11:24:27.030Z,14.80
2023-02-13T11:26:59.882Z,17.25
2023-02-13T11:29:30.265Z,15.68
2023-02-13T11:32:03.437Z,13.82
2023-02-13T11:34:32.172Z,13.95
2023-02-13T11:37:20.928Z,14.52
2023-02-13T11:39:51.412Z,14.13
2023-02-13T11:42:21.415Z,13.55
2023-02-13T11:44:59.254Z,14.00
2023-02-13T11:47:41.889Z,14.35
2023-02-13T11:50:29.102Z,13.15
2023-02-13T11:53:04.684Z,14.27
2023-02-13T11:55:33.995Z,13.02
2023-02-13T11:58:22.413Z,12.63
2023-02-13T12:00:49.292Z,11.75
2023-02-13T12:03:29.903Z,12.43
2023-02-13T12:06:08.695Z,13.73
2023-02-13T12:08:37.749Z,13.88
2023-02-13T12:11:17.278Z,13.80
2023-02-13T12:13:45.614Z,12.50
2023-02-13T12:16:26.786Z,13.40
2023-02-13T12:18:58.549Z,12.43
2023-02-13T12:22:00.951Z,12.95
2023-02-13T12:27:52.864Z,12.02
2023-02-13T12:30:25.651Z,13.20
2023-02-13T12:33:04.411Z,11.15
2023-02-13T12:35:49.405Z,13.23
2023-02-13T12:38:24.849Z,13.07
2023-02-13T12:41:03.682Z,13.30
2023-02-13T12:43:54.506Z,12.60
2023-02-13T12:46:27.131Z,14.32
2023-02-13T12:48:59.776Z,12.73
2023-02-13T12:51:55.403Z,13.02
2023-02-13T12:54:35.302Z,12.68
2023-02-13T12:57:23.119Z,12.05
2023-02-13T13:00:12.846Z,12.50
2023-02-13T13:02:45.755Z,12.32
2023-02-13T13:05:30.799Z,11.82
2023-02-13T13:08:15.813Z,11.38
2023-02-13T13:11:16.966Z,11.52
2023-02-13T13:13:43.685Z,12.23
2023-02-13T13:16:30.776Z,11.73
2023-02-13T13:19:06.450Z,12.07
2023-02-13T13:22:06.216Z,11.05
2023-02-13T13:25:01.983Z,10.88
2023-02-13T13:27:33.006Z,12.20
2023-02-13T13:30:13.262Z,11.25
2023-02-13T13:32:41.464Z,11.90
2023-02-13T13:35:15.010Z,11.57
2023-02-13T13:38:02.471Z,11.02
2023-02-13T13:40:40.348Z,11.82
2023-02-13T13:43:19.732Z,11.60
2023-02-13T13:46:21.125Z,11.95
2023-02-13T13:49:22.836Z,11.95
2023-02-13T13:51:49.549Z,11.25
2023-02-13T13:54:16.280Z,12.43
2023-02-13T13:57:05.632Z,12.05
2023-02-13T13:59:38.462Z,12.32
2023-02-13T14:02:17.076Z,11.18
2023-02-13T14:05:21.422Z,10.63
2023-02-13T14:07:56.673Z,10.63
2023-02-13T14:10:26.286Z,10.95
2023-02-13T14:12:55.781Z,11.82
2023-02-13T14:15:34.462Z,11.68
2023-02-13T14:18:14.813Z,10.45
2023-02-13T14:20:50.642Z,10.63
2023-02-13T14:23:23.464Z,11.23
2023-02-13T14:25:51.024Z,10.90
2023-02-13T14:28:26.741Z,10.40
2023-02-13T14:31:12.108Z,10.93
2023-02-13T14:33:38.903Z,10.23
2023-02-13T14:36:19.905Z,10.77
2023-02-13T14:38:59.779Z,11.30
2023-02-13T14:41:56.502Z,10.25
2023-02-13T14:44:42.853Z,10.80
2023-02-13T14:47:23.890Z,10.13
2023-02-13T14:49:51.706Z,10.00
2023-02-13T14:52:26.260Z,11.32
2023-02-13T14:54:58.144Z,10.80
2023-02-13T14:57:50.521Z,10.30
2023-02-13T15:00:36.386Z,10.98
2023-02-13T15:03:11.337Z,10.23
2023-02-13T15:05:38.145Z,9.93
2023-02-13T15:08:22.428Z,10.13
2023-02-13T15:10:52.162Z,10.25
2023-02-13T15:13:33.164Z,9.82
2023-02-13T15:16:02.034Z,10.23
2023-02-13T15:18:33.412Z,9.57
2023-02-13T15:21:01.399Z,10.07
2023-02-13T15:23:31.161Z,10.35
2023-02-13T15:26:06.892Z,10.77
2023-02-13T15:28:35.355Z,11.07
2023-02-13T15:31:05.473Z,10.55
2023-02-13T15:33:50.404Z,10.80
2023-02-13T15:36:26.059Z,11.30
2023-02-13T15:39:00.435Z,10.75
2023-02-13T15:41:38.487Z,10.02
2023-02-13T15:44:05.570Z,10.63
2023-02-13T15:46:34.855Z,10.80
2023-02-13T15:49:06.615Z,11.13
2023-02-13T15:51:36.596Z,10.55
2023-02-13T15:54:29.289Z,9.38
2023-02-13T15:57:00.933Z,9.25
2023-02-13T16:01:59.903Z,9.00
2023-02-13T16:04:27.844Z,9.90
2023-02-13T16:06:56.546Z,10.45
2023-02-13T16:09:41.871Z,9.18
2023-02-13T16:12:34.883Z,9.25
2023-02-13T16:15:03.057Z,9.88
2023-02-13T16:17:39.689Z,10.23
2023-02-13T16:20:28.223Z,10.32
2023-02-13T16:23:15.394Z,10.35
2023-02-13T16:25:42.119Z,10.55
2023-02-13T16:28:27.169Z,11.55
2023-02-13T16:31:03.009Z,11.10
2023-02-13T16:33:32.105Z,11.32
2023-02-13T16:36:10.937Z,13.77
2023-02-13T16:38:42.491Z,12.82
2023-02-13T16:41:25.342Z,13.32
2023-02-13T16:43:52.021Z,13.07
2023-02-13T16:46:27.551Z,13.40
2023-02-13T16:48:59.685Z,12.88
2023-02-13T16:51:42.207Z,13.48
2023-02-13T16:54:11.720Z,12.63
2023-02-13T16:57:15.227Z,13.48
2023-02-13T16:59:47.685Z,13.55
2023-02-13T17:02:22.112Z,13.32
2023-02-13T17:04:53.719Z,14.25
2023-02-13T17:07:24.038Z,14.63
2023-02-13T17:09:55.898Z,16.55
2023-02-13T17:12:23.606Z,20.73
2023-02-13T17:14:50.687Z,16.75
2023-02-13T17:17:20.220Z,15.25
2023-02-13T17:19:47.792Z,16.98
2023-02-13T17:22:38.846Z,15.23
2023-02-13T17:25:25.281Z,15.13
2023-02-13T17:27:58.634Z,14.23
2023-02-13T17:30:28.673Z,16.05
2023-02-13T17:33:13.332Z,14.73
2023-02-13T17:35:40.186Z,15.05
2023-02-13T17:38:09.293Z,16.67
2023-02-13T17:40:36.636Z,14.90
2023-02-13T17:43:03.672Z,14.70
2023-02-13T17:45:32.958Z,15.95
2023-02-13T17:47:59.909Z,16.67
2023-02-13T17:50:28.812Z,20.45
2023-02-13T17:52:56.647Z,18.17
2023-02-13T17:55:26.542Z,17.83
2023-02-13T17:57:56.443Z,17.50
2023-02-13T18:00:25.254Z,16.10
2023-02-13T18:02:52.235Z,17.77
2023-02-13T18:05:22.281Z,16.92
2023-02-13T18:07:49.715Z,17.15
2023-02-13T18:10:25.596Z,18.20
2023-02-13T18:12:53.675Z,17.70
2023-02-13T18:15:20.939Z,16.80
2023-02-13T18:17:47.662Z,19.02
2023-02-13T18:20:17.146Z,19.90
2023-02-13T18:22:44.341Z,19.30
2023-02-13T18:25:12.136Z,19.55
2023-02-13T18:27:39.239Z,19.33
2023-02-13T18:30:07.233Z,18.48
2023-02-13T18:32:34.094Z,19.48
2023-02-13T18:35:01.189Z,18.13
2023-02-13T18:37:30.839Z,17.42
2023-02-13T18:39:57.605Z,18.48
2023-02-13T18:42:24.566Z,19.10
2023-02-13T18:44:51.902Z,17.88
2023-02-13T18:47:19.184Z,18.65
2023-02-13T18:49:46.403Z,20.42
2023-02-13T18:52:13.173Z,22.05
2023-02-13T18:54:40.109Z,27.52
2023-02-13T18:57:06.813Z,27.33
2023-02-13T18:59:33.438Z,26.50
2023-02-13T19:02:01.222Z,25.77
2023-02-13T19:04:28.787Z,24.00
2023-02-13T19:06:55.488Z,25.35
2023-02-13T19:09:30.830Z,23.19
2023-02-13T19:11:57.534Z,25.38
2023-02-13T19:14:25.822Z,26.48
2023-02-13T19:16:53.147Z,35.80
2023-02-13T19:19:19.801Z,31.30
2023-02-13T19:21:46.438Z,28.63
2023-02-13T19:24:15.261Z,26.33
2023-02-13T19:26:42.522Z,24.05
2023-02-13T19:29:09.278Z,30.02
2023-02-13T19:31:36.434Z,27.60
2023-02-13T19:34:05.578Z,27.75
2023-02-13T19:36:32.503Z,24.13
2023-02-13T19:39:02.665Z,22.08
2023-02-13T19:41:29.915Z,22.50
2023-02-13T19:43:56.842Z,20.75
2023-02-13T19:46:26.793Z,18.77
2023-02-13T19:48:53.907Z,19.92
2023-02-13T19:51:24.130Z,19.67
2023-02-13T19:53:58.235Z,20.88
2023-02-13T19:56:27.168Z,20.60
2023-02-13T19:58:53.987Z,21.40
2023-02-13T20:01:23.041Z,19.08
2023-02-13T20:03:50.299Z,17.50
2023-02-13T20:06:20.698Z,17.98
2023-02-13T20:08:47.872Z,17.02
2023-02-13T20:11:20.273Z,15.48
2023-02-13T20:13:47.088Z,15.00
2023-02-13T20:16:16.702Z,15.20
2023-02-13T20:18:43.437Z,14.27
2023-02-13T20:21:15.493Z,13.65
2023-02-13T20:23:43.272Z,13.52
2023-02-13T20:26:13.813Z,14.88
2023-02-13T20:28:41.481Z,14.43
2023-02-13T20:31:10.877Z,13.65
2023-02-13T20:33:39.375Z,14.13
2023-02-13T20:36:23.880Z,14.45
2023-02-13T20:38:53.842Z,12.20
2023-02-13T20:41:23.779Z,13.73
2023-02-13T20:43:51.637Z,12.45
2023-02-13T20:46:19.073Z,13.65
2023-02-13T20:48:47.539Z,12.70
2023-02-13T20:51:16.335Z,11.32
2023-02-13T20:53:43.772Z,12.18
2023-02-13T20:56:13.349Z,11.45
2023-02-13T20:58:41.315Z,11.50
2023-02-13T21:01:17.338Z,11.65
2023-02-13T21:03:44.664Z,11.50
2023-02-13T21:06:11.718Z,11.32
2023-02-13T21:08:38.458Z,12.63
2023-02-13T21:11:07.459Z,11.45
2023-02-13T21:13:35.444Z,11.45
2023-02-13T21:16:17.425Z,11.75
2023-02-13T21:18:46.871Z,11.95
2023-02-13T21:21:13.778Z,10.65
2023-02-13T21:23:40.761Z,12.40
2023-02-13T21:26:13.534Z,11.90
2023-02-13T21:28:41.167Z,11.95
2023-02-13T21:31:17.668Z,12.82
2023-02-13T21:33:44.775Z,12.52
2023-02-13T21:36:12.864Z,11.90
2023-02-13T21:38:40.554Z,12.50
2023-02-13T21:41:13.410Z,11.63
2023-02-13T21:43:42.143Z,12.55
2023-02-13T21:46:11.258Z,11.52
2023-02-13T21:48:38.518Z,11.95
2023-02-13T21:51:11.071Z,12.73
2023-02-13T21:53:38.297Z,12.48
2023-02-13T21:56:15.526Z,12.52
2023-02-13T21:58:43.836Z,12.50
2023-02-13T22:01:26.098Z,12.00
2023-02-13T22:03:54.872Z,11.55
2023-02-13T22:06:21.839Z,11.45
2023-02-13T22:08:49.145Z,11.82
2023-02-13T22:11:18.390Z,11.90
2023-02-13T22:13:45.215Z,12.25
2023-02-13T22:16:14.555Z,10.90
2023-02-13T22:18:45.261Z,13.25
2023-02-13T22:21:14.459Z,12.38
2023-02-13T22:23:43.127Z,11.48
2023-02-13T22:26:23.220Z,12.38
2023-02-13T22:28:50.514Z,11.20
2023-02-13T22:31:18.300Z,11.63
2023-02-13T22:33:49.794Z,12.55
2023-02-13T22:38:44.636Z,11.60
2023-02-13T22:41:16.906Z,11.73
2023-02-13T22:43:43.677Z,12.18
2023-02-13T22:46:15.928Z,11.95
2023-02-13T22:48:45.983Z,12.55
2023-02-13T22:51:15.629Z,12.32
2023-02-13T22:53:42.762Z,12.85
2023-02-13T22:56:10.736Z,12.70
2023-02-13T22:58:38.071Z,14.35
2023-02-13T23:01:16.374Z,11.90
2023-02-13T23:03:43.405Z,13.15
2023-02-13T23:06:11.495Z,12.95
2023-02-13T23:08:38.982Z,12.98
2023-02-13T23:11:30.389Z,11.65
2023-02-13T23:13:57.219Z,11.55
2023-02-13T23:16:24.277Z,12.60
2023-02-13T23:18:52.700Z,13.25
2023-02-13T23:21:19.836Z,12.63
2023-02-13T23:23:46.956Z,12.25
2023-02-13T23:26:13.919Z,11.93
2023-02-13T23:28:40.804Z,11.63
2023-02-13T23:31:07.541Z,12.73
2023-02-13T23:33:34.282Z,11.82
2023-02-13T23:36:00.935Z,13.07
2023-02-13T23:38:27.737Z,12.35
2023-02-13T23:40:54.382Z,13.02
2023-02-13T23:43:21.099Z,12.57
2023-02-13T23:45:47.833Z,13.13
2023-02-13T23:48:14.656Z,13.25
2023-02-13T23:50:41.375Z,12.85
2023-02-13T23:53:08.153Z,13.60
2023-02-13T23:55:34.872Z,13.25
2023-02-13T23:58:01.577Z,14.07
